sensor_id;sensor_type;location;lat;lon;timestamp;pressure;altitude;pressure_sealevel;temperature;humidity
61880;BME280;47817;52.798;27.544;2023-05-08T00:02:06;1036.7;;;7.3;40.2
61880;BME280;47817;52.798;27.544;2023-05-08T00:07:06;1036.7;;;7.2;40.5
61880;BME280;47817;52.798;27.544;2023-05-08T00:11:42;1036.7;;;7.2;40.8
61880;BME280;47817;52.798;27.544;2023-05-08T00:16:16;1036.7;;;7.1;40.8
61880;BME280;47817;52.798;27.544;2023-05-08T00:22:08;1036.7;;;7.1;40.8
61880;BME280;47817;52.798;27.544;2023-05-08T00:27:08;1036.6;;;7;40.8
61880;BME280;47817;52.798;27.544;2023-05-08T00:31:40;1036.7;;;6.9;41
61880;BME280;47817;52.798;27.544;2023-05-08T00:36:40;1036.7;;;6.9;41.2
61880;BME280;47817;52.798;27.544;2023-05-08T00:41:32;1036.7;;;6.8;41.4
61880;BME280;47817;52.798;27.544;2023-05-08T00:46:16;1036.7;;;6.8;41.2
61880;BME280;47817;52.798;27.544;2023-05-08T00:51:16;1036.8;;;6.8;41.1
61880;BME280;47817;52.798;27.544;2023-05-08T00:57:06;1036.8;;;6.7;41.3
61880;BME280;47817;52.798;27.544;2023-05-08T01:01:28;1036.8;;;6.6;41.2
61880;BME280;47817;52.798;27.544;2023-05-08T01:07:06;1036.8;;;6.6;41.3
61880;BME280;47817;52.798;27.544;2023-05-08T01:11:51;1036.9;;;6.6;41.3
61880;BME280;47817;52.798;27.544;2023-05-08T01:16:28;1036.9;;;6.5;41.7
61880;BME280;47817;52.798;27.544;2023-05-08T01:21:21;1036.9;;;6.5;41.9
61880;BME280;47817;52.798;27.544;2023-05-08T01:26:31;1036.9;;;6.4;41.8
61880;BME280;47817;52.798;27.544;2023-05-08T01:31:31;1036.9;;;6.4;41.9
61880;BME280;47817;52.798;27.544;2023-05-08T01:36:57;1037;;;6.3;42
61880;BME280;47817;52.798;27.544;2023-05-08T01:42:04;1036.9;;;6.3;42.1
61880;BME280;47817;52.798;27.544;2023-05-08T01:46:43;1037;;;6.3;42.3
61880;BME280;47817;52.798;27.544;2023-05-08T01:52:08;1037;;;6.2;42.7
61880;BME280;47817;52.798;27.544;2023-05-08T01:57:06;1037;;;6.2;42.8
61880;BME280;47817;52.798;27.544;2023-05-08T02:01:51;1037.1;;;6.1;42.9
61880;BME280;47817;52.798;27.544;2023-05-08T02:06:30;1037.1;;;6.1;43.3
61880;BME280;47817;52.798;27.544;2023-05-08T02:11:16;1037.1;;;6;43.3
61880;BME280;47817;52.798;27.544;2023-05-08T02:16:58;1037.2;;;6;43.2
61880;BME280;47817;52.798;27.544;2023-05-08T02:21:50;1037.2;;;6;43.2
61880;BME280;47817;52.798;27.544;2023-05-08T02:26:42;1037.2;;;6;43.1
61880;BME280;47817;52.798;27.544;2023-05-08T02:32:06;1037.2;;;6;42.8
61880;BME280;47817;52.798;27.544;2023-05-08T02:37:06;1037.2;;;6;43.1
61880;BME280;47817;52.798;27.544;2023-05-08T02:41:22;1037.2;;;6;43.3
61880;BME280;47817;52.798;27.544;2023-05-08T02:46:43;1037.2;;;6;43.4
61880;BME280;47817;52.798;27.544;2023-05-08T02:52:07;1037.3;;;6.1;43.6
61880;BME280;47817;52.798;27.544;2023-05-08T02:56:31;1037.3;;;6.1;43.6
61880;BME280;47817;52.798;27.544;2023-05-08T03:01:30;1037.4;;;6.2;43.4
61880;BME280;47817;52.798;27.544;2023-05-08T03:06:50;1037.4;;;6.3;43.3
61880;BME280;47817;52.798;27.544;2023-05-08T03:11:42;1037.5;;;6.4;43.1
61880;BME280;47817;52.798;27.544;2023-05-08T03:17:06;1037.5;;;6.5;42.9
61880;BME280;47817;52.798;27.544;2023-05-08T03:21:34;1037.5;;;6.6;42.7
61880;BME280;47817;52.798;27.544;2023-05-08T03:27:04;1037.5;;;6.7;42.5
61880;BME280;47817;52.798;27.544;2023-05-08T03:31:52;1037.6;;;6.8;42.5
61880;BME280;47817;52.798;27.544;2023-05-08T03:37:08;1037.6;;;7;42.3
61880;BME280;47817;52.798;27.544;2023-05-08T03:41:16;1037.6;;;7.1;42.1
61880;BME280;47817;52.798;27.544;2023-05-08T03:46:30;1037.6;;;7.1;42.1
61880;BME280;47817;52.798;27.544;2023-05-08T03:51:28;1037.6;;;7.2;42
61880;BME280;47817;52.798;27.544;2023-05-08T03:56:42;1037.6;;;7.3;42.1
61880;BME280;47817;52.798;27.544;2023-05-08T04:02:08;1037.6;;;7.4;42.1
61880;BME280;47817;52.798;27.544;2023-05-08T04:06:20;1037.7;;;7.5;42.1
61880;BME280;47817;52.798;27.544;2023-05-08T04:12:08;1037.8;;;7.6;42.2
61880;BME280;47817;52.798;27.544;2023-05-08T04:16:51;1037.8;;;7.7;42
61880;BME280;47817;52.798;27.544;2023-05-08T04:21:26;1037.8;;;7.8;41.9
61880;BME280;47817;52.798;27.544;2023-05-08T04:26:50;1037.8;;;8;41.7
61880;BME280;47817;52.798;27.544;2023-05-08T04:31:34;1037.8;;;8.1;41.5
61880;BME280;47817;52.798;27.544;2023-05-08T04:36:16;1037.9;;;8.2;41.4
61880;BME280;47817;52.798;27.544;2023-05-08T04:41:58;1037.9;;;8.4;41.5
61880;BME280;47817;52.798;27.544;2023-05-08T04:47:06;1038;;;8.5;41.2
61880;BME280;47817;52.798;27.544;2023-05-08T04:51:42;1038;;;8.7;41.1
61880;BME280;47817;52.798;27.544;2023-05-08T04:57:06;1038;;;8.8;41
61880;BME280;47817;52.798;27.544;2023-05-08T05:02:06;1038;;;8.9;41
61880;BME280;47817;52.798;27.544;2023-05-08T05:06:18;1038;;;9.1;40.8
61880;BME280;47817;52.798;27.544;2023-05-08T05:11:40;1038.1;;;9.3;40.7
61880;BME280;47817;52.798;27.544;2023-05-08T05:16:16;1038.1;;;9.5;40.5
61880;BME280;47817;52.798;27.544;2023-05-08T05:21:58;1038.1;;;9.6;40.3
61880;BME280;47817;52.798;27.544;2023-05-08T05:26:50;1038.1;;;9.8;40.2
61880;BME280;47817;52.798;27.544;2023-05-08T05:31:28;1038.1;;;10;39.8
61880;BME280;47817;52.798;27.544;2023-05-08T05:36:58;1038.1;;;10.1;39.6
61880;BME280;47817;52.798;27.544;2023-05-08T05:42:06;1038.2;;;10.3;39.5
61880;BME280;47817;52.798;27.544;2023-05-08T05:46:34;1038.2;;;10.5;39.5
61880;BME280;47817;52.798;27.544;2023-05-08T05:51:42;1038.2;;;10.7;39.2
61880;BME280;47817;52.798;27.544;2023-05-08T05:56:50;1038.2;;;10.9;39.1
61880;BME280;47817;52.798;27.544;2023-05-08T06:01:26;1038.3;;;11.1;39
61880;BME280;47817;52.798;27.544;2023-05-08T06:06:40;1038.3;;;11.3;38.8
61880;BME280;47817;52.798;27.544;2023-05-08T06:11:50;1038.3;;;11.6;38.2
61880;BME280;47817;52.798;27.544;2023-05-08T06:16:16;1038.3;;;11.8;37.8
61880;BME280;47817;52.798;27.544;2023-05-08T06:22:06;1038.2;;;12;37.5
61880;BME280;47817;52.798;27.544;2023-05-08T06:26:38;1038.2;;;12.2;37.4
61880;BME280;47817;52.798;27.544;2023-05-08T06:32:08;1038.3;;;12.4;37.1
61880;BME280;47817;52.798;27.544;2023-05-08T06:36:52;1038.3;;;12.5;36.6
61880;BME280;47817;52.798;27.544;2023-05-08T06:42:08;1038.3;;;12.7;36.1
61880;BME280;47817;52.798;27.544;2023-05-08T06:46:30;1038.3;;;12.9;36
61880;BME280;47817;52.798;27.544;2023-05-08T06:51:58;1038.3;;;13.1;36
61880;BME280;47817;52.798;27.544;2023-05-08T06:56:28;1038.3;;;13.3;34.8
61880;BME280;47817;52.798;27.544;2023-05-08T07:01:42;1038.3;;;13.5;34.6
61880;BME280;47817;52.798;27.544;2023-05-08T07:06:56;1038.3;;;13.8;34.3
61880;BME280;47817;52.798;27.544;2023-05-08T07:11:16;1038.2;;;14;33.8
61880;BME280;47817;52.798;27.544;2023-05-08T07:17:06;1038.2;;;14.1;33.7
61880;BME280;47817;52.798;27.544;2023-05-08T07:21:34;1038.2;;;14.1;32.2
61880;BME280;47817;52.798;27.544;2023-05-08T07:26:28;1038.1;;;14.2;31.4
61880;BME280;47817;52.798;27.544;2023-05-08T07:32:06;1038.1;;;14.3;30.5
61880;BME280;47817;52.798;27.544;2023-05-08T07:36:36;1038.1;;;14.6;29.9
61880;BME280;47817;52.798;27.544;2023-05-08T07:41:16;1038.1;;;14.9;30.1
61880;BME280;47817;52.798;27.544;2023-05-08T07:46:18;1038.1;;;14.8;29.6
61880;BME280;47817;52.798;27.544;2023-05-08T07:52:08;1038.1;;;14.9;29.5
61880;BME280;47817;52.798;27.544;2023-05-08T07:56:16;1038.1;;;14.8;29.2
61880;BME280;47817;52.798;27.544;2023-05-08T08:02:06;1038.1;;;15.1;28.8
61880;BME280;47817;52.798;27.544;2023-05-08T08:07:06;1038.1;;;15.4;27.9
61880;BME280;47817;52.798;27.544;2023-05-08T08:11:50;1038;;;15.6;27.3
61880;BME280;47817;52.798;27.544;2023-05-08T08:16:28;1037.9;;;15.8;27.1
61880;BME280;47817;52.798;27.544;2023-05-08T08:21:44;1038;;;16;26.8
61880;BME280;47817;52.798;27.544;2023-05-08T08:26:52;1037.8;;;16.1;26.7
61880;BME280;47817;52.798;27.544;2023-05-08T08:31:50;1037.9;;;16.3;26.7
61880;BME280;47817;52.798;27.544;2023-05-08T08:36:16;1037.9;;;16.4;26.3
61880;BME280;47817;52.798;27.544;2023-05-08T08:42:06;1037.9;;;16.5;26.1
61880;BME280;47817;52.798;27.544;2023-05-08T08:47:06;1037.9;;;16.7;25.5
61880;BME280;47817;52.798;27.544;2023-05-08T08:51:30;1037.8;;;16.8;25.3
61880;BME280;47817;52.798;27.544;2023-05-08T08:56:24;1037.8;;;16.7;25
61880;BME280;47817;52.798;27.544;2023-05-08T09:01:49;1037.8;;;16.8;25.2
61880;BME280;47817;52.798;27.544;2023-05-08T09:06:16;1037.7;;;17.2;25
61880;BME280;47817;52.798;27.544;2023-05-08T09:11:16;1037.7;;;17.3;24.7
61880;BME280;47817;52.798;27.544;2023-05-08T09:16:50;1037.7;;;17.4;24.6
61880;BME280;47817;52.798;27.544;2023-05-08T09:21:28;1037.7;;;17.4;24.5
61880;BME280;47817;52.798;27.544;2023-05-08T09:27:11;1037.6;;;17.5;24.2
61880;BME280;47817;52.798;27.544;2023-05-08T09:31:34;1037.6;;;17.9;23.8
61880;BME280;47817;52.798;27.544;2023-05-08T09:37:10;1037.6;;;18;23.6
61880;BME280;47817;52.798;27.544;2023-05-08T09:41:57;1037.5;;;18;23.4
61880;BME280;47817;52.798;27.544;2023-05-08T09:47:09;1037.5;;;18.1;23.3
61880;BME280;47817;52.798;27.544;2023-05-08T09:51:29;1037.5;;;18.4;23.3
61880;BME280;47817;52.798;27.544;2023-05-08T09:56:58;1037.4;;;18.5;23.2
61880;BME280;47817;52.798;27.544;2023-05-08T10:01:27;1037.4;;;18.7;23
61880;BME280;47817;52.798;27.544;2023-05-08T10:06:38;1037.4;;;18.5;23
61880;BME280;47817;52.798;27.544;2023-05-08T10:11:41;1037.3;;;18.2;22.6
61880;BME280;47817;52.798;27.544;2023-05-08T10:16:27;1037.3;;;18.4;22.8
61880;BME280;47817;52.798;27.544;2023-05-08T10:22:06;1037.3;;;18.2;22.6
61880;BME280;47817;52.798;27.544;2023-05-08T10:26:34;1037.2;;;18.3;22.7
61880;BME280;47817;52.798;27.544;2023-05-08T10:31:17;1037.2;;;18.6;22.9
61880;BME280;47817;52.798;27.544;2023-05-08T10:37:04;1037.2;;;19.2;22.3
61880;BME280;47817;52.798;27.544;2023-05-08T10:41:34;1037.1;;;19.5;22.2
61880;BME280;47817;52.798;27.544;2023-05-08T10:46:29;1037.1;;;19.4;22.3
61880;BME280;47817;52.798;27.544;2023-05-08T10:51:20;1037.1;;;19.2;22.1
61880;BME280;47817;52.798;27.544;2023-05-08T10:57:07;1037.1;;;19.3;22.2
61880;BME280;47817;52.798;27.544;2023-05-08T11:01:38;1037;;;19.8;21.6
61880;BME280;47817;52.798;27.544;2023-05-08T11:06:16;1037;;;20.2;21.3
61880;BME280;47817;52.798;27.544;2023-05-08T11:12:06;1037;;;20.5;21.4
61880;BME280;47817;52.798;27.544;2023-05-08T11:17:01;1036.9;;;20.4;21.2
61880;BME280;47817;52.798;27.544;2023-05-08T11:21:18;1036.9;;;20.6;21.3
61880;BME280;47817;52.798;27.544;2023-05-08T11:26:37;1036.9;;;21.1;21
61880;BME280;47817;52.798;27.544;2023-05-08T11:32:04;1036.8;;;21.2;20.9
61880;BME280;47817;52.798;27.544;2023-05-08T11:36:42;1036.9;;;21.6;20.8
61880;BME280;47817;52.798;27.544;2023-05-08T11:41:19;1036.8;;;21.7;20.7
61880;BME280;47817;52.798;27.544;2023-05-08T11:46:34;1036.7;;;21.8;20.6
61880;BME280;47817;52.798;27.544;2023-05-08T11:51:58;1036.6;;;21.7;20.5
61880;BME280;47817;52.798;27.544;2023-05-08T11:56:28;1036.6;;;21.9;20.5
61880;BME280;47817;52.798;27.544;2023-05-08T12:01:42;1036.6;;;22.3;20.2
61880;BME280;47817;52.798;27.544;2023-05-08T12:06:50;1036.5;;;22.6;19.9
61880;BME280;47817;52.798;27.544;2023-05-08T12:11:26;1036.5;;;23.3;19.6
61880;BME280;47817;52.798;27.544;2023-05-08T12:16:42;1036.5;;;23.5;19.3
61880;BME280;47817;52.798;27.544;2023-05-08T12:21:50;1036.5;;;23.1;19
61880;BME280;47817;52.798;27.544;2023-05-08T12:26:16;1036.5;;;22.8;18.6
61880;BME280;47817;52.798;27.544;2023-05-08T12:32:04;1036.4;;;22.7;18.8
61880;BME280;47817;52.798;27.544;2023-05-08T12:36:34;1036.4;;;22.8;18.7
61880;BME280;47817;52.798;27.544;2023-05-08T12:42:06;1036.3;;;23.3;18.9
61880;BME280;47817;52.798;27.544;2023-05-08T12:46:51;1036.3;;;23.9;18.7
61880;BME280;47817;52.798;27.544;2023-05-08T12:52:05;1036.3;;;24.4;18.3
61880;BME280;47817;52.798;27.544;2023-05-08T12:56:30;1036.2;;;26.7;16.9
61880;BME280;47817;52.798;27.544;2023-05-08T13:01:58;1036;;;29.2;15.4
61880;BME280;47817;52.798;27.544;2023-05-08T13:06:34;1036;;;30.8;14.1
61880;BME280;47817;52.798;27.544;2023-05-08T13:11:50;1036;;;31.8;13.9
61880;BME280;47817;52.798;27.544;2023-05-08T13:16:16;1036;;;31.5;14.1
61880;BME280;47817;52.798;27.544;2023-05-08T13:21:30;1036;;;28.9;15.1
61880;BME280;47817;52.798;27.544;2023-05-08T13:27:06;1036;;;27.8;15.6
61880;BME280;47817;52.798;27.544;2023-05-08T13:31:34;1035.9;;;31.1;14.2
61880;BME280;47817;52.798;27.544;2023-05-08T13:36:16;1035.9;;;32.8;13.3
61880;BME280;47817;52.798;27.544;2023-05-08T13:42:06;1035.8;;;34.5;12.2
61880;BME280;47817;52.798;27.544;2023-05-08T13:46:16;1035.7;;;34.7;12
61880;BME280;47817;52.798;27.544;2023-05-08T13:51:28;1035.7;;;36.2;11.2
61880;BME280;47817;52.798;27.544;2023-05-08T13:56:30;1035.7;;;36.9;10.8
61880;BME280;47817;52.798;27.544;2023-05-08T14:02:02;1035.7;;;37.3;10.4
61880;BME280;47817;52.798;27.544;2023-05-08T14:06:16;1035.7;;;37.4;10.4
61880;BME280;47817;52.798;27.544;2023-05-08T14:11:40;1035.6;;;37.5;9.8
61880;BME280;47817;52.798;27.544;2023-05-08T14:17:04;1035.7;;;37.7;9.7
61880;BME280;47817;52.798;27.544;2023-05-08T14:22:04;1035.6;;;38.1;8.9
61880;BME280;47817;52.798;27.544;2023-05-08T14:26:16;1035.6;;;37.9;9.1
61880;BME280;47817;52.798;27.544;2023-05-08T14:31:34;1035.6;;;38.3;9
61880;BME280;47817;52.798;27.544;2023-05-08T14:37:04;1035.6;;;39.3;8.8
61880;BME280;47817;52.798;27.544;2023-05-08T14:41:18;1035.6;;;38.8;8.8
61880;BME280;47817;52.798;27.544;2023-05-08T14:46:16;1035.7;;;35.5;10
61880;BME280;47817;52.798;27.544;2023-05-08T14:51:42;1035.7;;;31.8;11.1
61880;BME280;47817;52.798;27.544;2023-05-08T14:56:56;1035.8;;;29.2;11.9
61880;BME280;47817;52.798;27.544;2023-05-08T15:01:16;1035.8;;;27.5;12.6
61880;BME280;47817;52.798;27.544;2023-05-08T15:06:42;1035.7;;;29.6;11.8
61880;BME280;47817;52.798;27.544;2023-05-08T15:12:04;1035.6;;;31.8;11
61880;BME280;47817;52.798;27.544;2023-05-08T15:16:16;1035.6;;;33.4;10.5
61880;BME280;47817;52.798;27.544;2023-05-08T15:22:04;1035.6;;;34.6;10.4
61880;BME280;47817;52.798;27.544;2023-05-08T15:26:50;1035.6;;;34.6;10.2
61880;BME280;47817;52.798;27.544;2023-05-08T15:31:26;1035.6;;;34.4;10.4
61880;BME280;47817;52.798;27.544;2023-05-08T15:36:42;1035.6;;;34.5;10.3
61880;BME280;47817;52.798;27.544;2023-05-08T15:41:36;1035.6;;;33.3;10.5
61880;BME280;47817;52.798;27.544;2023-05-08T15:46:28;1035.7;;;29.5;11.9
61880;BME280;47817;52.798;27.544;2023-05-08T15:51:56;1035.8;;;27.4;12.7
61880;BME280;47817;52.798;27.544;2023-05-08T15:57:06;1035.8;;;26.6;13.3
61880;BME280;47817;52.798;27.544;2023-05-08T16:01:42;1035.7;;;26.7;13.4
61880;BME280;47817;52.798;27.544;2023-05-08T16:06:57;1035.6;;;29.7;12.2
61880;BME280;47817;52.798;27.544;2023-05-08T16:11:28;1035.6;;;30.3;12.1
61880;BME280;47817;52.798;27.544;2023-05-08T16:16:52;1035.6;;;30.7;11.9
61880;BME280;47817;52.798;27.544;2023-05-08T16:21:28;1035.6;;;30.4;11.9
61880;BME280;47817;52.798;27.544;2023-05-08T16:26:28;1035.6;;;29.5;12.5
61880;BME280;47817;52.798;27.544;2023-05-08T16:32:04;1035.6;;;29.7;12.4
61880;BME280;47817;52.798;27.544;2023-05-08T16:36:26;1035.7;;;27.9;13.4
61880;BME280;47817;52.798;27.544;2023-05-08T16:41:28;1035.7;;;25.8;14.7
61880;BME280;47817;52.798;27.544;2023-05-08T16:47:04;1035.8;;;24.3;15.4
61880;BME280;47817;52.798;27.544;2023-05-08T16:51:22;1035.9;;;23.6;15.9
61880;BME280;47817;52.798;27.544;2023-05-08T16:56:28;1035.9;;;23.7;15.9
61880;BME280;47817;52.798;27.544;2023-05-08T17:01:56;1036;;;23.4;16.4
61880;BME280;47817;52.798;27.544;2023-05-08T17:07:04;1036;;;23;17.1
61880;BME280;47817;52.798;27.544;2023-05-08T17:11:28;1036.1;;;22.2;18
61880;BME280;47817;52.798;27.544;2023-05-08T17:16:16;1036.1;;;21.5;18.8
61880;BME280;47817;52.798;27.544;2023-05-08T17:22:04;1036.1;;;22.3;18.6
61880;BME280;47817;52.798;27.544;2023-05-08T17:27:03;1036.1;;;22.8;18.5
61880;BME280;47817;52.798;27.544;2023-05-08T17:31:16;1036.2;;;21.6;19.2
61880;BME280;47817;52.798;27.544;2023-05-08T17:36:22;1036.3;;;20.2;20.2
61880;BME280;47817;52.798;27.544;2023-05-08T17:42:04;1036.4;;;19.2;20.9
61880;BME280;47817;52.798;27.544;2023-05-08T17:46:48;1036.5;;;18.3;21.5
61880;BME280;47817;52.798;27.544;2023-05-08T17:51:42;1036.5;;;17.6;21.9
61880;BME280;47817;52.798;27.544;2023-05-08T17:56:43;1036.6;;;17.1;22.4
61880;BME280;47817;52.798;27.544;2023-05-08T18:01:56;1036.6;;;16.6;23
61880;BME280;47817;52.798;27.544;2023-05-08T18:06:34;1036.6;;;16.1;23.4
61880;BME280;47817;52.798;27.544;2023-05-08T18:11:42;1036.7;;;15.7;23.8
61880;BME280;47817;52.798;27.544;2023-05-08T18:17:04;1036.8;;;15.4;24.1
61880;BME280;47817;52.798;27.544;2023-05-08T18:21:16;1036.8;;;15.1;24.3
61880;BME280;47817;52.798;27.544;2023-05-08T18:27:04;1036.9;;;14.9;24.8
61880;BME280;47817;52.798;27.544;2023-05-08T18:31:50;1036.9;;;14.7;25.5
61880;BME280;47817;52.798;27.544;2023-05-08T18:36:16;1037;;;14.5;26.3
61880;BME280;47817;52.798;27.544;2023-05-08T18:41:48;1037.1;;;14.3;26.8
61880;BME280;47817;52.798;27.544;2023-05-08T18:46:22;1037.1;;;14.2;27.5
61880;BME280;47817;52.798;27.544;2023-05-08T18:51:16;1037.2;;;14;28.1
61880;BME280;47817;52.798;27.544;2023-05-08T18:56:54;1037.2;;;13.9;28.4
61880;BME280;47817;52.798;27.544;2023-05-08T19:02:04;1037.2;;;13.8;28.7
61880;BME280;47817;52.798;27.544;2023-05-08T19:06:50;1037.3;;;13.7;28.9
61880;BME280;47817;52.798;27.544;2023-05-08T19:12:04;1037.3;;;13.5;29.8
61880;BME280;47817;52.798;27.544;2023-05-08T19:17:04;1037.3;;;13.3;30.5
61880;BME280;47817;52.798;27.544;2023-05-08T19:21:50;1037.4;;;13.2;30.6
61880;BME280;47817;52.798;27.544;2023-05-08T19:26:16;1037.4;;;13;30.6
61880;BME280;47817;52.798;27.544;2023-05-08T19:31:56;1037.4;;;12.8;30.9
61880;BME280;47817;52.798;27.544;2023-05-08T19:36:44;1037.5;;;12.7;31
61880;BME280;47817;52.798;27.544;2023-05-08T19:41:48;1037.4;;;12.6;31.3
61880;BME280;47817;52.798;27.544;2023-05-08T19:46:16;1037.4;;;12.5;31.6
61880;BME280;47817;52.798;27.544;2023-05-08T19:52:02;1037.5;;;12.3;32.1
61880;BME280;47817;52.798;27.544;2023-05-08T19:56:34;1037.5;;;12.2;32.8
61880;BME280;47817;52.798;27.544;2023-05-08T20:01:26;1037.5;;;12.1;33.6
61880;BME280;47817;52.798;27.544;2023-05-08T20:06:56;1037.5;;;11.9;33.9
61880;BME280;47817;52.798;27.544;2023-05-08T20:12:04;1037.5;;;11.8;33.5
61880;BME280;47817;52.798;27.544;2023-05-08T20:16:16;1037.5;;;11.8;33.3
61880;BME280;47817;52.798;27.544;2023-05-08T20:21:56;1037.5;;;11.6;33.8
61880;BME280;47817;52.798;27.544;2023-05-08T20:27:04;1037.5;;;11.6;34.7
61880;BME280;47817;52.798;27.544;2023-05-08T20:32:04;1037.5;;;11.5;35.2
61880;BME280;47817;52.798;27.544;2023-05-08T20:36:40;1037.5;;;11.5;35.1
61880;BME280;47817;52.798;27.544;2023-05-08T20:41:36;1037.5;;;11.4;34.8
61880;BME280;47817;52.798;27.544;2023-05-08T20:47:04;1037.5;;;11.3;35.1
61880;BME280;47817;52.798;27.544;2023-05-08T20:51:48;1037.5;;;11.1;35.7
61880;BME280;47817;52.798;27.544;2023-05-08T20:56:26;1037.6;;;11.1;35.8
61880;BME280;47817;52.798;27.544;2023-05-08T21:01:42;1037.6;;;11.1;35.9
61880;BME280;47817;52.798;27.544;2023-05-08T21:06:56;1037.6;;;11;37.3
61880;BME280;47817;52.798;27.544;2023-05-08T21:11:16;1037.6;;;10.9;37.6
61880;BME280;47817;52.798;27.544;2023-05-08T21:16:42;1037.7;;;11;36.4
61880;BME280;47817;52.798;27.544;2023-05-08T21:22:04;1037.7;;;10.9;36.8
61880;BME280;47817;52.798;27.544;2023-05-08T21:26:16;1037.7;;;10.8;37.6
61880;BME280;47817;52.798;27.544;2023-05-08T21:32:04;1037.7;;;10.7;38.1
61880;BME280;47817;52.798;27.544;2023-05-08T21:36:50;1037.7;;;10.7;38.5
61880;BME280;47817;52.798;27.544;2023-05-08T21:41:16;1037.7;;;10.6;38.7
61880;BME280;47817;52.798;27.544;2023-05-08T21:46:50;1037.8;;;10.5;38.8
61880;BME280;47817;52.798;27.544;2023-05-08T21:51:36;1037.8;;;10.5;38.5
61880;BME280;47817;52.798;27.544;2023-05-08T21:56:28;1037.8;;;10.4;38.3
61880;BME280;47817;52.798;27.544;2023-05-08T22:01:56;1037.8;;;10.4;38.1
61880;BME280;47817;52.798;27.544;2023-05-08T22:07:04;1037.8;;;10.3;37.9
61880;BME280;47817;52.798;27.544;2023-05-08T22:11:42;1037.8;;;10.3;37.9
61880;BME280;47817;52.798;27.544;2023-05-08T22:17:05;1037.7;;;10.2;38
61880;BME280;47817;52.798;27.544;2023-05-08T22:22:02;1037.7;;;10.1;38.2
61880;BME280;47817;52.798;27.544;2023-05-08T22:26:50;1037.7;;;10.1;38.3
61880;BME280;47817;52.798;27.544;2023-05-08T22:31:16;1037.7;;;10;38.4
61880;BME280;47817;52.798;27.544;2023-05-08T22:36:28;1037.7;;;9.9;38.7
61880;BME280;47817;52.798;27.544;2023-05-08T22:41:57;1037.7;;;9.8;39.2
61880;BME280;47817;52.798;27.544;2023-05-08T22:46:48;1037.8;;;9.7;39.6
61880;BME280;47817;52.798;27.544;2023-05-08T22:51:30;1037.7;;;9.7;39.9
61880;BME280;47817;52.798;27.544;2023-05-08T22:57:04;1037.7;;;9.7;40
61880;BME280;47817;52.798;27.544;2023-05-08T23:02:04;1037.7;;;9.7;40
61880;BME280;47817;52.798;27.544;2023-05-08T23:06:34;1037.7;;;9.7;39.9
61880;BME280;47817;52.798;27.544;2023-05-08T23:11:28;1037.7;;;9.6;39.7
61880;BME280;47817;52.798;27.544;2023-05-08T23:16:18;1037.7;;;9.6;39.7
61880;BME280;47817;52.798;27.544;2023-05-08T23:21:16;1037.7;;;9.5;40.2
61880;BME280;47817;52.798;27.544;2023-05-08T23:26:28;1037.7;;;9.4;40.4
61880;BME280;47817;52.798;27.544;2023-05-08T23:31:50;1037.7;;;9.4;40.3
61880;BME280;47817;52.798;27.544;2023-05-08T23:36:28;1037.7;;;9.4;40.1
61880;BME280;47817;52.798;27.544;2023-05-08T23:42:04;1037.8;;;9.4;40
61880;BME280;47817;52.798;27.544;2023-05-08T23:46:36;1037.8;;;9.3;39.9
61880;BME280;47817;52.798;27.544;2023-05-08T23:52:03;1037.8;;;9.3;39.8
61880;BME280;47817;52.798;27.544;2023-05-08T23:56:54;1037.8;;;9.3;39.9
